Time;durP1;ratioP1;P1;durP2;ratioP2;P2;SDS_P1;SDS_P2;PMS_P1;PMS_P2;Temp;Humidity;BMP_temperature;BMP_pressure;BME280_temperature;BME280_humidity;BME280_pressure;Samples;Min_cycle;Max_cycle;Signal;HPM_P1;HPM_P2
2023/04/13 00:02:09;;;;;;;;;;;;;;;5.45;87.89;99332.75;5027230;28;2779;-78
2023/04/13 00:04:34;;;;;;;;;;;;;;;5.40;88.18;99324.63;5043595;28;1894;-78
2023/04/13 00:07:02;;;;;;;;;;;;;;;5.42;88.59;99327.88;5044792;28;1042;-77
2023/04/13 00:09:29;;;;;;;;;;;;;;;5.36;89.02;99320.69;5041996;28;1093;-78
2023/04/13 00:11:57;;;;;;;;;;;;;;;5.36;89.53;99324.06;5038950;28;1316;-78
2023/04/13 00:14:26;;;;;;;;;;;;;;;5.36;89.13;99310.41;5040453;28;1124;-77
2023/04/13 00:16:51;;;;;;;;;;;;;;;5.35;89.73;99307.00;5043985;28;1083;-77
2023/04/13 00:19:16;;;;;;;;;;;;;;;5.31;89.64;99310.78;5045216;28;1085;-78
2023/04/13 00:21:42;;;;;;;;;;;;;;;5.31;89.56;99306.44;5043660;28;1162;-78
2023/04/13 00:24:07;;;;;;;;;;;;;;;5.31;90.65;99298.75;5018500;28;1953;-78
2023/04/13 00:26:33;;;;;;;;;;;;;;;5.32;89.87;99302.94;5043273;28;1493;-77
2023/04/13 00:28:58;;;;;;;;;;;;;;;5.30;90.64;99299.69;5037570;28;1130;-78
2023/04/13 00:31:24;;;;;;;;;;;;;;;5.30;90.93;99294.53;5038731;28;1398;-79
2023/04/13 00:33:50;;;;;;;;;;;;;;;5.30;90.70;99301.44;5025249;28;1691;-78
2023/04/13 00:36:15;;;;;;;;;;;;;;;5.30;91.19;99288.59;5040495;28;1509;-78
2023/04/13 00:38:43;;;;;;;;;;;;;;;5.31;91.08;99288.44;5037045;28;1292;-80
2023/04/13 00:41:10;;;;;;;;;;;;;;;5.30;91.68;99279.13;5038044;28;1195;-78
2023/04/13 00:43:35;;;;;;;;;;;;;;;5.27;91.36;99289.66;5035613;28;1993;-77
2023/04/13 00:46:00;;;;;;;;;;;;;;;5.30;91.95;99286.84;5037076;28;1196;-79
2023/04/13 00:48:26;;;;;;;;;;;;;;;5.32;91.87;99278.97;5029187;28;1191;-78
2023/04/13 00:50:51;;;;;;;;;;;;;;;5.31;92.28;99288.44;5044781;28;1293;-78
2023/04/13 00:53:17;;;;;;;;;;;;;;;5.32;92.32;99287.50;5029812;28;1415;-79
2023/04/13 00:55:42;;;;;;;;;;;;;;;5.32;93.28;99292.66;5028750;28;1113;-79
2023/04/13 00:58:08;;;;;;;;;;;;;;;5.35;92.57;99285.63;5020161;28;1298;-78
2023/04/13 01:00:37;;;;;;;;;;;;;;;5.35;92.83;99286.44;5027486;28;1474;-78
2023/04/13 01:03:02;;;;;;;;;;;;;;;5.42;92.53;99279.84;5032074;28;1434;-78
2023/04/13 01:05:32;;;;;;;;;;;;;;;5.40;94.37;99278.34;5037747;28;1898;-78
2023/04/13 01:08:12;;;;;;;;;;;;;;;5.44;93.44;99275.38;5024863;28;1496;-78
2023/04/13 01:10:47;;;;;;;;;;;;;;;5.41;94.19;99275.66;5025820;28;1627;-78
2023/04/13 01:13:12;;;;;;;;;;;;;;;5.44;94.20;99269.41;5030192;28;1375;-79
2023/04/13 01:15:40;;;;;;;;;;;;;;;5.44;95.25;99265.09;5029381;28;1195;-78
2023/04/13 01:18:07;;;;;;;;;;;;;;;5.44;95.16;99269.41;5040257;28;1259;-78
2023/04/13 01:20:35;;;;;;;;;;;;;;;5.49;96.00;99274.97;5043566;28;1103;-78
2023/04/13 01:23:03;;;;;;;;;;;;;;;5.48;95.04;99281.06;5041687;28;1368;-79
2023/04/13 01:25:37;;;;;;;;;;;;;;;5.49;95.18;99269.84;5043801;28;1894;-78
2023/04/13 01:28:11;;;;;;;;;;;;;;;5.51;95.47;99271.34;5040593;28;1128;-78
2023/04/13 01:30:37;;;;;;;;;;;;;;;5.53;95.81;99278.94;5047593;28;1121;-78
2023/04/13 01:33:03;;;;;;;;;;;;;;;5.54;95.96;99267.69;5047609;28;1116;-78
2023/04/13 01:35:29;;;;;;;;;;;;;;;5.55;95.73;99277.03;5045166;28;1294;-78
2023/04/13 01:37:56;;;;;;;;;;;;;;;5.53;96.21;99284.06;5046702;28;1239;-78
2023/04/13 01:40:21;;;;;;;;;;;;;;;5.53;96.13;99291.78;5043552;28;1474;-77
2023/04/13 01:42:47;;;;;;;;;;;;;;;5.58;96.11;99302.50;5039696;28;1090;-78
2023/04/13 01:45:18;;;;;;;;;;;;;;;5.55;97.01;99302.75;5026608;28;1922;-78
2023/04/13 01:47:54;;;;;;;;;;;;;;;5.55;97.53;99307.88;5045284;28;1284;-78
2023/04/13 01:50:24;;;;;;;;;;;;;;;5.73;97.40;99319.19;5039174;28;1279;-78
2023/04/13 01:52:51;;;;;;;;;;;;;;;5.57;97.49;99313.72;5042455;28;1158;-78
2023/04/13 01:55:17;;;;;;;;;;;;;;;5.56;98.40;99324.94;5042604;28;1427;-78
2023/04/13 01:57:44;;;;;;;;;;;;;;;5.70;97.63;99311.75;5035320;28;1555;-78
2023/04/13 02:00:12;;;;;;;;;;;;;;;5.55;97.45;99323.31;5041506;28;1176;-78
2023/04/13 02:02:38;;;;;;;;;;;;;;;5.60;97.73;99316.84;5040223;28;1113;-78
2023/04/13 02:05:03;;;;;;;;;;;;;;;5.73;98.52;99326.09;5023310;28;1898;-78
2023/04/13 02:07:28;;;;;;;;;;;;;;;5.66;98.13;99320.66;5037429;28;1184;-78
2023/04/13 02:09:53;;;;;;;;;;;;;;;5.65;98.67;99334.47;5045736;28;1126;-78
2023/04/13 02:12:19;;;;;;;;;;;;;;;5.72;99.03;99330.41;5043514;28;1242;-79
2023/04/13 02:14:44;;;;;;;;;;;;;;;5.65;98.97;99334.47;5041078;28;1055;-78
2023/04/13 02:17:10;;;;;;;;;;;;;;;5.72;99.44;99348.41;5021272;28;1609;-78
2023/04/13 02:19:35;;;;;;;;;;;;;;;5.70;98.77;99347.75;5047124;28;1082;-78
2023/04/13 02:22:00;;;;;;;;;;;;;;;5.73;99.27;99351.81;5044752;28;1153;-78
2023/04/13 02:24:26;;;;;;;;;;;;;;;5.70;99.13;99358.03;5023663;28;1985;-78
2023/04/13 02:26:51;;;;;;;;;;;;;;;5.79;99.37;99367.56;5031601;28;1362;-79
2023/04/13 02:29:16;;;;;;;;;;;;;;;5.68;99.39;99371.94;5027208;28;1704;-79
2023/04/13 02:31:42;;;;;;;;;;;;;;;5.68;99.94;99365.09;5040015;28;1521;-79
2023/04/13 02:34:09;;;;;;;;;;;;;;;5.65;99.43;99373.03;5042614;28;1149;-78
2023/04/13 02:36:34;;;;;;;;;;;;;;;5.64;99.77;99379.13;5026548;28;1408;-79
2023/04/13 02:38:59;;;;;;;;;;;;;;;5.71;100.00;99395.69;5045778;28;1155;-78
2023/04/13 02:41:24;;;;;;;;;;;;;;;5.60;99.84;99398.34;5038547;28;1341;-78
2023/04/13 02:43:50;;;;;;;;;;;;;;;5.51;99.70;99405.06;5039346;28;1890;-79
2023/04/13 02:46:16;;;;;;;;;;;;;;;5.53;100.00;99402.38;5030130;28;1301;-79
2023/04/13 02:48:41;;;;;;;;;;;;;;;5.46;99.79;99411.53;5023521;28;1718;-79
2023/04/13 02:51:06;;;;;;;;;;;;;;;5.44;100.00;99408.25;5038827;28;1149;-80
2023/04/13 02:53:31;;;;;;;;;;;;;;;5.43;99.41;99411.78;5037235;28;1483;-78
2023/04/13 02:55:57;;;;;;;;;;;;;;;5.36;99.28;99421.75;5039637;28;1161;-78
2023/04/13 02:58:22;;;;;;;;;;;;;;;5.31;99.83;99424.69;5043547;28;1238;-78
2023/04/13 03:00:47;;;;;;;;;;;;;;;5.34;100.00;99428.78;5039775;28;1058;-79
2023/04/13 03:03:13;;;;;;;;;;;;;;;5.35;100.00;99430.41;5026244;28;1409;-79
2023/04/13 03:05:39;;;;;;;;;;;;;;;5.28;100.00;99435.25;5027994;28;1992;-78
2023/04/13 03:08:05;;;;;;;;;;;;;;;5.26;99.90;99438.88;5043708;28;1144;-78
2023/04/13 03:10:30;;;;;;;;;;;;;;;5.26;100.00;99446.59;5041628;28;1169;-78
2023/04/13 03:12:55;;;;;;;;;;;;;;;5.21;100.00;99444.38;5039650;28;1125;-79
2023/04/13 03:15:20;;;;;;;;;;;;;;;5.21;100.00;99457.22;5039098;28;1150;-79
2023/04/13 03:17:46;;;;;;;;;;;;;;;5.19;100.00;99461.69;5026374;28;1342;-80
2023/04/13 03:20:12;;;;;;;;;;;;;;;5.15;99.89;99465.44;5043159;28;1234;-79
2023/04/13 03:22:38;;;;;;;;;;;;;;;5.18;100.00;99459.25;5039625;28;1547;-78
2023/04/13 03:25:04;;;;;;;;;;;;;;;5.16;100.00;99466.25;5045465;28;1902;-78
2023/04/13 03:27:29;;;;;;;;;;;;;;;5.10;99.92;99467.56;5035325;28;1327;-78
2023/04/13 03:29:54;;;;;;;;;;;;;;;5.06;99.92;99472.16;5043418;28;1188;-78
2023/04/13 03:32:20;;;;;;;;;;;;;;;5.18;100.00;99479.81;5032846;28;1291;-78
2023/04/13 03:34:45;;;;;;;;;;;;;;;5.09;100.00;99476.22;5045446;28;964;-78
2023/04/13 03:37:10;;;;;;;;;;;;;;;5.10;100.00;99488.13;5043414;28;1514;-78
2023/04/13 03:39:36;;;;;;;;;;;;;;;5.07;100.00;99483.25;5042750;28;1076;-79
2023/04/13 03:42:02;;;;;;;;;;;;;;;5.10;100.00;99482.16;5041642;28;1206;-78
2023/04/13 03:44:27;;;;;;;;;;;;;;;5.12;100.00;99486.25;5043824;28;1894;-78
2023/04/13 03:46:53;;;;;;;;;;;;;;;5.10;100.00;99493.25;5023293;28;1447;-78
2023/04/13 03:49:18;;;;;;;;;;;;;;;5.12;100.00;99495.72;5043793;28;1514;-80
2023/04/13 03:51:43;;;;;;;;;;;;;;;5.20;100.00;99504.44;5039606;28;1157;-79
2023/04/13 03:54:08;;;;;;;;;;;;;;;5.06;100.00;99505.56;5035280;28;1163;-79
2023/04/13 03:56:33;;;;;;;;;;;;;;;5.09;100.00;99514.75;5026083;28;1373;-79
2023/04/13 03:58:59;;;;;;;;;;;;;;;5.03;99.78;99518.63;5045626;28;1144;-79
2023/04/13 04:01:24;;;;;;;;;;;;;;;5.06;100.00;99517.59;5043263;28;1013;-79
2023/04/13 04:03:49;;;;;;;;;;;;;;;4.99;100.00;99513.88;5027330;28;1973;-79
2023/04/13 04:06:15;;;;;;;;;;;;;;;5.04;100.00;99524.59;5027766;28;1215;-78
2023/04/13 04:08:40;;;;;;;;;;;;;;;5.07;100.00;99524.34;5040218;28;1036;-78
2023/04/13 04:11:05;;;;;;;;;;;;;;;5.05;100.00;99527.06;5045032;28;955;-78
2023/04/13 04:13:31;;;;;;;;;;;;;;;5.09;100.00;99531.94;5037019;28;1083;-77
2023/04/13 04:15:57;;;;;;;;;;;;;;;5.03;100.00;99539.19;5024648;28;1454;-78
2023/04/13 04:18:22;;;;;;;;;;;;;;;5.03;100.00;99543.53;5043546;28;1114;-78
2023/04/13 04:20:47;;;;;;;;;;;;;;;5.01;100.00;99540.25;5039028;28;1125;-78
2023/04/13 04:23:14;;;;;;;;;;;;;;;5.09;100.00;99553.31;5047887;28;1083;-78
2023/04/13 04:25:39;;;;;;;;;;;;;;;5.08;100.00;99549.13;5042392;28;1902;-77
2023/04/13 04:28:05;;;;;;;;;;;;;;;5.10;100.00;99554.13;5048749;28;944;-78
2023/04/13 04:30:32;;;;;;;;;;;;;;;5.10;100.00;99554.94;5047282;28;1364;-78
2023/04/13 04:32:58;;;;;;;;;;;;;;;5.04;100.00;99556.25;5045941;28;1352;-76
2023/04/13 04:35:25;;;;;;;;;;;;;;;5.08;100.00;99559.41;5050194;28;1487;-76
2023/04/13 04:37:51;;;;;;;;;;;;;;;5.08;100.00;99567.09;5047030;28;1300;-76
2023/04/13 04:40:16;;;;;;;;;;;;;;;5.05;100.00;99572.50;5042727;28;1238;-76
2023/04/13 04:42:41;;;;;;;;;;;;;;;5.06;100.00;99563.84;5051725;28;1439;-75
2023/04/13 04:45:09;;;;;;;;;;;;;;;5.05;100.00;99580.22;5033106;28;1959;-76
2023/04/13 04:47:40;;;;;;;;;;;;;;;5.06;100.00;99579.28;5041487;28;1498;-76
2023/04/13 04:50:06;;;;;;;;;;;;;;;5.07;100.00;99580.91;5045274;28;1038;-76
2023/04/13 04:52:33;;;;;;;;;;;;;;;5.11;100.00;99587.44;5051328;28;1238;-76
2023/04/13 04:54:58;;;;;;;;;;;;;;;5.11;100.00;99582.28;5047601;28;1085;-76
2023/04/13 04:57:23;;;;;;;;;;;;;;;5.14;100.00;99592.31;5049618;28;1549;-75
2023/04/13 04:59:48;;;;;;;;;;;;;;;5.13;100.00;99590.69;5050168;28;1391;-76
2023/04/13 05:02:15;;;;;;;;;;;;;;;5.16;100.00;99599.91;5032743;28;1272;-76
2023/04/13 05:04:40;;;;;;;;;;;;;;;5.16;100.00;99595.59;5045208;28;1961;-77
2023/04/13 05:07:06;;;;;;;;;;;;;;;5.16;100.00;99600.75;5043960;28;1203;-76
2023/04/13 05:09:31;;;;;;;;;;;;;;;5.26;100.00;99596.50;5050870;28;1166;-76
2023/04/13 05:11:57;;;;;;;;;;;;;;;5.22;100.00;99605.41;5044045;28;1342;-75
2023/04/13 05:14:22;;;;;;;;;;;;;;;5.22;100.00;99602.84;5047802;28;1063;-75
2023/04/13 05:16:47;;;;;;;;;;;;;;;5.29;100.00;99601.41;5045003;28;1293;-76
2023/04/13 05:19:13;;;;;;;;;;;;;;;5.32;100.00;99603.72;5025672;28;1391;-76
2023/04/13 05:21:38;;;;;;;;;;;;;;;5.28;100.00;99604.09;5041697;28;1106;-75
2023/04/13 05:24:03;;;;;;;;;;;;;;;5.36;100.00;99612.00;5046198;28;1972;-76
2023/04/13 05:26:29;;;;;;;;;;;;;;;5.37;100.00;99612.81;5039459;28;1266;-76
2023/04/13 05:28:55;;;;;;;;;;;;;;;5.41;100.00;99616.78;5028577;28;1442;-76
2023/04/13 05:31:23;;;;;;;;;;;;;;;5.42;100.00;99624.38;5040209;28;1263;-76
2023/04/13 05:33:48;;;;;;;;;;;;;;;5.46;100.00;99627.53;5035597;28;1442;-76
2023/04/13 05:36:13;;;;;;;;;;;;;;;5.52;100.00;99627.03;5034156;28;1489;-75
2023/04/13 05:38:38;;;;;;;;;;;;;;;5.55;100.00;99625.03;5042401;28;1101;-76
2023/04/13 05:41:09;;;;;;;;;;;;;;;5.55;100.00;99627.59;5018594;28;1300;-76
2023/04/13 05:43:34;;;;;;;;;;;;;;;5.53;100.00;99628.66;5046204;28;1132;-75
2023/04/13 05:45:59;;;;;;;;;;;;;;;5.58;100.00;99631.69;5044508;28;1918;-76
2023/04/13 05:48:25;;;;;;;;;;;;;;;5.66;100.00;99639.59;5041679;28;1122;-76
2023/04/13 05:50:54;;;;;;;;;;;;;;;5.64;100.00;99646.63;5045703;28;1642;-75
2023/04/13 05:53:19;;;;;;;;;;;;;;;5.62;100.00;99645.09;5045457;28;1245;-77
2023/04/13 05:55:45;;;;;;;;;;;;;;;5.62;100.00;99653.66;5044399;28;1172;-76
2023/04/13 05:58:10;;;;;;;;;;;;;;;5.62;100.00;99663.97;5045594;28;1269;-76
2023/04/13 06:00:36;;;;;;;;;;;;;;;5.65;100.00;99663.69;5045971;28;1009;-76
2023/04/13 06:03:01;;;;;;;;;;;;;;;5.67;100.00;99672.09;5044841;28;1121;-76
2023/04/13 06:05:28;;;;;;;;;;;;;;;5.66;100.00;99669.66;5028473;28;1956;-77
2023/04/13 06:07:53;;;;;;;;;;;;;;;5.76;100.00;99680.84;5046974;28;1131;-77
2023/04/13 06:10:18;;;;;;;;;;;;;;;5.64;100.00;99692.94;5045493;28;1036;-76
2023/04/13 06:12:47;;;;;;;;;;;;;;;5.65;100.00;99702.28;5036321;28;1100;-77
2023/04/13 06:15:12;;;;;;;;;;;;;;;5.59;100.00;99713.06;5036876;28;950;-76
2023/04/13 06:17:37;;;;;;;;;;;;;;;5.54;100.00;99703.13;5035834;28;1450;-76
2023/04/13 06:20:05;;;;;;;;;;;;;;;5.62;100.00;99715.41;5012996;28;1260;-76
2023/04/13 06:22:31;;;;;;;;;;;;;;;5.55;100.00;99725.31;5040107;28;1084;-76
2023/04/13 06:24:56;;;;;;;;;;;;;;;5.53;100.00;99723.81;5030763;28;1894;-75
2023/04/13 06:27:21;;;;;;;;;;;;;;;5.54;100.00;99730.59;5042934;28;1178;-75
2023/04/13 06:29:47;;;;;;;;;;;;;;;5.58;100.00;99734.56;5043670;28;1181;-75
2023/04/13 06:32:12;;;;;;;;;;;;;;;5.57;100.00;99736.34;5030893;28;2025;-75
2023/04/13 06:34:37;;;;;;;;;;;;;;;5.58;100.00;99729.44;5039811;28;1540;-75
2023/04/13 06:37:02;;;;;;;;;;;;;;;5.53;100.00;99740.06;5046181;28;1300;-76
2023/04/13 06:39:28;;;;;;;;;;;;;;;5.55;100.00;99740.75;5044653;28;1319;-76
2023/04/13 06:41:53;;;;;;;;;;;;;;;5.66;100.00;99747.66;5032108;28;1323;-76
2023/04/13 06:44:18;;;;;;;;;;;;;;;5.65;100.00;99734.91;5038764;28;1898;-76
2023/04/13 06:46:43;;;;;;;;;;;;;;;5.63;100.00;99742.75;5042310;28;1269;-76
2023/04/13 06:49:09;;;;;;;;;;;;;;;5.66;100.00;99750.22;5037965;28;1208;-76
2023/04/13 06:51:34;;;;;;;;;;;;;;;5.63;100.00;99742.75;5042758;28;1137;-76
2023/04/13 06:54:00;;;;;;;;;;;;;;;5.68;100.00;99756.06;5044253;28;1403;-77
2023/04/13 06:56:25;;;;;;;;;;;;;;;5.67;100.00;99746.69;5036332;28;1399;-77
2023/04/13 06:58:50;;;;;;;;;;;;;;;5.69;100.00;99746.59;5037416;28;1193;-76
2023/04/13 07:01:16;;;;;;;;;;;;;;;5.76;100.00;99756.28;5030039;28;1181;-76
2023/04/13 07:03:42;;;;;;;;;;;;;;;5.77;100.00;99760.47;5025078;28;1274;-76
2023/04/13 07:06:07;;;;;;;;;;;;;;;5.90;100.00;99759.50;5041031;28;1463;-76
2023/04/13 07:08:33;;;;;;;;;;;;;;;5.94;100.00;99771.25;5040082;28;1217;-77
2023/04/13 07:10:58;;;;;;;;;;;;;;;5.97;100.00;99781.31;5032642;28;1168;-76
2023/04/13 07:13:24;;;;;;;;;;;;;;;5.92;100.00;99791.97;5043253;28;1133;-77
2023/04/13 07:15:49;;;;;;;;;;;;;;;5.90;100.00;99796.34;5031018;28;1300;-77
2023/04/13 07:18:15;;;;;;;;;;;;;;;6.00;100.00;99793.91;5045554;28;1288;-76
2023/04/13 07:20:40;;;;;;;;;;;;;;;5.98;100.00;99799.19;5023869;28;1198;-76
2023/04/13 07:23:06;;;;;;;;;;;;;;;5.94;100.00;99796.97;5023552;28;1608;-76
2023/04/13 07:25:35;;;;;;;;;;;;;;;5.99;100.00;99800.81;5037870;28;1965;-77
2023/04/13 07:28:00;;;;;;;;;;;;;;;5.93;100.00;99800.50;5043444;28;1244;-77
2023/04/13 07:30:26;;;;;;;;;;;;;;;5.93;100.00;99810.78;5043850;28;1154;-76
2023/04/13 07:32:51;;;;;;;;;;;;;;;5.93;100.00;99815.94;5043643;28;1421;-76
2023/04/13 07:35:17;;;;;;;;;;;;;;;6.02;100.00;99817.75;5045060;28;1438;-77
2023/04/13 07:37:42;;;;;;;;;;;;;;;5.97;100.00;99809.63;5028478;28;1284;-77
2023/04/13 07:40:07;;;;;;;;;;;;;;;5.99;100.00;99825.75;5042180;28;1124;-77
2023/04/13 07:42:33;;;;;;;;;;;;;;;6.01;100.00;99834.97;5035756;28;1280;-77
2023/04/13 07:44:58;;;;;;;;;;;;;;;6.03;100.00;99822.81;5025332;28;1918;-77
2023/04/13 07:47:23;;;;;;;;;;;;;;;6.10;100.00;99843.75;5037853;28;1130;-77
2023/04/13 07:49:48;;;;;;;;;;;;;;;6.15;100.00;99831.31;5021170;28;1231;-77
2023/04/13 07:52:14;;;;;;;;;;;;;;;6.20;100.00;99829.22;5037717;28;1486;-77
2023/04/13 07:54:39;;;;;;;;;;;;;;;6.31;100.00;99836.91;5043418;28;1097;-78
2023/04/13 07:57:05;;;;;;;;;;;;;;;6.47;100.00;99840.81;5044252;28;1134;-77
2023/04/13 07:59:30;;;;;;;;;;;;;;;6.51;100.00;99842.22;5043896;28;1295;-77
2023/04/13 08:01:55;;;;;;;;;;;;;;;6.56;100.00;99842.66;5029595;28;1288;-77
2023/04/13 08:04:20;;;;;;;;;;;;;;;6.72;100.00;99839.66;5042822;28;1963;-76
2023/04/13 08:06:47;;;;;;;;;;;;;;;6.80;100.00;99850.97;5024340;28;1288;-77
2023/04/13 08:09:12;;;;;;;;;;;;;;;6.98;100.00;99853.00;5031466;28;1317;-77
2023/04/13 08:11:37;;;;;;;;;;;;;;;6.92;100.00;99857.69;5047586;28;1092;-76
2023/04/13 08:14:03;;;;;;;;;;;;;;;6.91;100.00;99861.22;5036458;28;1169;-76
2023/04/13 08:16:33;;;;;;;;;;;;;;;7.07;100.00;99865.13;5048650;28;1180;-77
2023/04/13 08:19:00;;;;;;;;;;;;;;;7.06;100.00;99868.66;5050351;28;1024;-76
2023/04/13 08:21:25;;;;;;;;;;;;;;;7.02;100.00;99877.59;5031705;28;1318;-76
2023/04/13 08:23:50;;;;;;;;;;;;;;;6.99;100.00;99888.13;5039364;28;1925;-77
2023/04/13 08:26:19;;;;;;;;;;;;;;;7.01;100.00;99886.25;5043715;28;1631;-77
2023/04/13 08:28:48;;;;;;;;;;;;;;;6.98;100.00;99889.91;5041840;28;1154;-76
2023/04/13 08:31:14;;;;;;;;;;;;;;;6.99;100.00;99898.44;5040969;28;1097;-76
2023/04/13 08:33:40;;;;;;;;;;;;;;;6.99;100.00;99909.56;5033892;28;1207;-77
2023/04/13 08:36:06;;;;;;;;;;;;;;;7.03;100.00;99907.56;5044334;28;1156;-76
2023/04/13 08:38:31;;;;;;;;;;;;;;;7.12;100.00;99914.56;5024282;28;1284;-76
2023/04/13 08:40:57;;;;;;;;;;;;;;;7.24;100.00;99917.91;5048455;28;1188;-76
2023/04/13 08:43:23;;;;;;;;;;;;;;;7.33;100.00;99919.72;5040828;28;1368;-76
2023/04/13 08:45:48;;;;;;;;;;;;;;;7.48;100.00;99927.97;5046750;28;1894;-76
2023/04/13 08:48:14;;;;;;;;;;;;;;;7.55;100.00;99926.50;5046743;28;1152;-76
2023/04/13 08:50:41;;;;;;;;;;;;;;;7.63;100.00;99934.44;5038243;28;1070;-77
2023/04/13 08:53:07;;;;;;;;;;;;;;;7.63;100.00;99945.56;5041598;28;1306;-76
2023/04/13 08:55:32;;;;;;;;;;;;;;;7.71;100.00;99948.31;5040840;28;1019;-76
2023/04/13 08:57:59;;;;;;;;;;;;;;;7.65;100.00;99958.34;5039108;28;1501;-76
2023/04/13 09:00:25;;;;;;;;;;;;;;;7.66;100.00;99960.78;5047411;28;1049;-76
2023/04/13 09:02:57;;;;;;;;;;;;;;;7.69;99.88;99960.53;5048518;28;1128;-76
2023/04/13 09:05:24;;;;;;;;;;;;;;;7.81;98.75;99963.84;5045106;28;1902;-76
2023/04/13 09:07:52;;;;;;;;;;;;;;;7.76;99.31;99966.00;5044422;28;1284;-76
2023/04/13 09:10:19;;;;;;;;;;;;;;;7.80;98.82;99969.97;5046034;28;1082;-76
2023/04/13 09:12:44;;;;;;;;;;;;;;;7.97;97.04;99984.88;5040969;28;1351;-76
2023/04/13 09:15:10;;;;;;;;;;;;;;;8.01;97.69;99979.44;5044496;28;1284;-76
2023/04/13 09:17:36;;;;;;;;;;;;;;;7.92;96.75;99984.44;5023623;28;1351;-76
2023/04/13 09:20:21;;;;;;;;;;;;;;;7.90;97.23;99993.22;5028711;28;1308;-76
2023/04/13 09:22:46;;;;;;;;;;;;;;;7.84;97.26;99997.16;5046978;28;1252;-76
2023/04/13 09:25:21;;;;;;;;;;;;;;;7.85;97.51;99998.78;5046432;28;1893;-76
2023/04/13 09:27:46;;;;;;;;;;;;;;;7.80;97.76;100013.84;5020452;28;1164;-76
2023/04/13 09:30:12;;;;;;;;;;;;;;;7.92;96.86;100017.19;5040594;28;1130;-77
2023/04/13 09:32:37;;;;;;;;;;;;;;;7.82;97.05;100017.13;5041094;28;1309;-76
2023/04/13 09:35:03;;;;;;;;;;;;;;;7.77;97.45;100023.59;5021369;28;1440;-77
2023/04/13 09:37:31;;;;;;;;;;;;;;;7.82;97.50;100022.28;5043966;28;1372;-76
2023/04/13 09:40:07;;;;;;;;;;;;;;;7.92;96.98;100028.31;5041154;28;1274;-76
2023/04/13 09:42:32;;;;;;;;;;;;;;;7.99;97.71;100034.59;5045778;28;1605;-76
2023/04/13 09:44:58;;;;;;;;;;;;;;;8.20;96.19;100041.50;5046332;28;1938;-76
2023/04/13 09:47:23;;;;;;;;;;;;;;;8.25;96.01;100049.66;5047210;28;1159;-76
2023/04/13 09:49:49;;;;;;;;;;;;;;;8.31;95.15;100041.41;5027279;28;1427;-76
2023/04/13 09:52:18;;;;;;;;;;;;;;;8.43;93.76;100048.16;5030583;28;1268;-76
2023/04/13 09:54:47;;;;;;;;;;;;;;;8.52;94.02;100052.53;5047042;28;1021;-76
2023/04/13 09:57:21;;;;;;;;;;;;;;;8.60;95.09;100048.47;5044997;28;1185;-76
2023/04/13 09:59:46;;;;;;;;;;;;;;;8.76;94.56;100064.31;5043541;28;1192;-76
2023/04/13 10:02:13;;;;;;;;;;;;;;;8.89;93.00;100064.06;5044284;28;1184;-76
2023/04/13 10:04:38;;;;;;;;;;;;;;;8.89;92.87;100080.44;5028798;28;1875;-76
2023/04/13 10:07:04;;;;;;;;;;;;;;;8.91;91.91;100078.50;5037923;28;1149;-75
2023/04/13 10:09:29;;;;;;;;;;;;;;;8.84;90.97;100082.59;5046601;28;1126;-76
2023/04/13 10:11:55;;;;;;;;;;;;;;;8.82;91.50;100099.97;5044853;28;1068;-76
2023/04/13 10:14:23;;;;;;;;;;;;;;;8.67;91.40;100096.13;5046438;28;1186;-76
2023/04/13 10:17:07;;;;;;;;;;;;;;;8.59;92.03;100104.53;5044473;28;1179;-76
2023/04/13 10:19:34;;;;;;;;;;;;;;;8.61;92.07;100118.16;5026388;28;1283;-76
2023/04/13 10:22:00;;;;;;;;;;;;;;;8.63;92.04;100112.84;5042830;28;2080;-76
2023/04/13 10:24:27;;;;;;;;;;;;;;;8.73;93.07;100113.72;5029053;28;1965;-75
2023/04/13 10:26:59;;;;;;;;;;;;;;;8.96;92.08;100109.97;5046387;28;1123;-76
2023/04/13 10:29:28;;;;;;;;;;;;;;;9.24;90.92;100115.34;5026353;28;1232;-75
2023/04/13 10:31:55;;;;;;;;;;;;;;;9.24;90.21;100128.28;5045273;28;1259;-76
2023/04/13 10:34:25;;;;;;;;;;;;;;;9.28;89.26;100127.03;5026214;28;1171;-76
2023/04/13 10:36:53;;;;;;;;;;;;;;;9.23;89.96;100139.56;5026557;28;1623;-76
2023/04/13 10:39:22;;;;;;;;;;;;;;;9.19;87.61;100133.84;5046736;28;952;-76
2023/04/13 10:41:57;;;;;;;;;;;;;;;9.16;87.53;100141.03;5037849;28;1303;-76
2023/04/13 10:44:22;;;;;;;;;;;;;;;9.09;87.55;100152.88;5037711;28;1967;-76
2023/04/13 10:46:50;;;;;;;;;;;;;;;9.14;86.69;100153.31;5026331;28;1219;-76
2023/04/13 10:49:16;;;;;;;;;;;;;;;9.16;87.54;100161.75;5028074;28;1331;-76
2023/04/13 10:51:42;;;;;;;;;;;;;;;9.32;85.59;100169.81;5025072;28;1379;-76
2023/04/13 10:54:08;;;;;;;;;;;;;;;9.29;84.59;100176.09;5038745;28;1153;-76
2023/04/13 10:56:34;;;;;;;;;;;;;;;9.50;84.80;100172.56;5027591;28;1295;-76
2023/04/13 10:58:59;;;;;;;;;;;;;;;9.45;84.08;100174.75;5021217;28;1449;-76
2023/04/13 11:01:24;;;;;;;;;;;;;;;9.51;84.99;100169.84;5039981;28;1098;-76
2023/04/13 11:03:50;;;;;;;;;;;;;;;9.60;84.94;100180.38;5025438;28;1244;-77
2023/04/13 11:06:16;;;;;;;;;;;;;;;9.60;85.12;100193.31;5029859;28;1894;-76
2023/04/13 11:08:42;;;;;;;;;;;;;;;9.56;86.31;100187.56;5036678;28;1338;-77
2023/04/13 11:11:09;;;;;;;;;;;;;;;9.51;84.50;100195.72;5043366;28;1229;-76
2023/04/13 11:13:42;;;;;;;;;;;;;;;9.51;81.92;100195.72;5027148;28;1460;-77
2023/04/13 11:16:07;;;;;;;;;;;;;;;9.40;82.89;100198.44;5040219;28;1111;-77
2023/04/13 11:18:32;;;;;;;;;;;;;;;9.43;81.89;100203.34;5044400;28;1277;-76
2023/04/13 11:20:58;;;;;;;;;;;;;;;9.41;82.02;100200.09;5043506;28;1279;-77
2023/04/13 11:23:23;;;;;;;;;;;;;;;9.36;80.98;100201.44;5044171;28;1399;-76
2023/04/13 11:25:56;;;;;;;;;;;;;;;9.33;81.25;100212.84;5041739;28;1906;-76
2023/04/13 11:28:22;;;;;;;;;;;;;;;9.32;81.40;100216.41;5040149;28;1019;-77
2023/04/13 11:30:52;;;;;;;;;;;;;;;9.36;82.06;100214.38;5041943;28;1147;-76
2023/04/13 11:33:23;;;;;;;;;;;;;;;9.50;82.49;100219.97;5045890;28;1280;-74
2023/04/13 11:35:48;;;;;;;;;;;;;;;9.68;81.56;100216.75;5040661;28;1208;-76
2023/04/13 11:38:16;;;;;;;;;;;;;;;9.90;80.11;100220.88;5038535;28;1300;-75
2023/04/13 11:40:44;;;;;;;;;;;;;;;9.82;78.15;100224.13;5038569;28;1446;-76
2023/04/13 11:43:09;;;;;;;;;;;;;;;9.74;77.67;100216.22;5044563;28;1001;-76
2023/04/13 11:45:37;;;;;;;;;;;;;;;9.72;77.49;100218.13;5038663;28;1910;-76
2023/04/13 11:48:04;;;;;;;;;;;;;;;9.73;80.00;100219.75;5034943;28;1103;-76
2023/04/13 11:50:30;;;;;;;;;;;;;;;9.75;77.75;100212.69;5046463;28;1066;-76
2023/04/13 11:52:56;;;;;;;;;;;;;;;9.72;77.49;100223.31;5041634;28;1159;-76
2023/04/13 11:55:22;;;;;;;;;;;;;;;9.77;77.93;100226.31;5043077;28;1168;-76
2023/04/13 11:57:47;;;;;;;;;;;;;;;9.83;77.14;100221.41;5042803;28;1246;-76
2023/04/13 12:00:22;;;;;;;;;;;;;;;9.87;73.87;100232.31;5038166;28;1307;-77
2023/04/13 12:02:49;;;;;;;;;;;;;;;9.81;74.81;100230.28;5040640;28;1037;-76
2023/04/13 12:05:21;;;;;;;;;;;;;;;9.87;76.09;100227.16;5041185;28;1894;-76
2023/04/13 12:07:47;;;;;;;;;;;;;;;10.05;74.47;100233.28;5025427;28;1418;-76
2023/04/13 12:10:18;;;;;;;;;;;;;;;9.97;75.61;100238.31;5041202;28;1053;-76
2023/04/13 12:12:44;;;;;;;;;;;;;;;10.13;75.29;100242.13;5024661;28;1329;-76
2023/04/13 12:15:09;;;;;;;;;;;;;;;10.20;74.25;100248.41;5040759;28;1016;-76
2023/04/13 12:17:35;;;;;;;;;;;;;;;10.27;73.21;100252.97;5039668;28;1282;-76
2023/04/13 12:20:01;;;;;;;;;;;;;;;10.29;71.92;100247.63;5037505;28;1344;-76
2023/04/13 12:22:46;;;;;;;;;;;;;;;10.33;73.58;100249.00;5045659;28;1113;-76
2023/04/13 12:25:14;;;;;;;;;;;;;;;10.45;72.14;100255.66;5035445;28;1910;-76
2023/04/13 12:27:39;;;;;;;;;;;;;;;10.47;71.89;100245.97;5042860;28;1246;-76
2023/04/13 12:30:08;;;;;;;;;;;;;;;10.42;70.55;100253.34;5045599;28;1076;-77
2023/04/13 12:32:38;;;;;;;;;;;;;;;10.50;70.83;100256.06;5038848;28;1152;-76
2023/04/13 12:35:21;;;;;;;;;;;;;;;10.59;70.01;100255.22;5038823;28;1152;-77
2023/04/13 12:37:47;;;;;;;;;;;;;;;10.68;69.56;100257.97;5039704;28;1129;-76
2023/04/13 12:40:40;;;;;;;;;;;;;;;10.75;69.90;100259.03;5024743;28;1352;-78
2023/04/13 12:43:05;;;;;;;;;;;;;;;10.96;69.06;100262.25;5035874;28;1245;-76
2023/04/13 12:45:58;;;;;;;;;;;;;;;10.99;69.38;100261.97;5042772;28;1894;-76
2023/04/13 12:48:24;;;;;;;;;;;;;;;11.02;69.72;100271.25;5042036;28;1164;-76
2023/04/13 12:51:14;;;;;;;;;;;;;;;11.09;69.86;100273.13;5048234;28;1379;-76
2023/04/13 12:53:39;;;;;;;;;;;;;;;11.20;69.42;100276.50;5045750;28;1659;-76
2023/04/13 12:56:32;;;;;;;;;;;;;;;11.14;68.26;100286.50;5048045;28;1233;-75
2023/04/13 12:58:57;;;;;;;;;;;;;;;11.12;68.19;100288.41;5041802;28;1299;-76